Nady, Arkansas
Current Conditions -  °F | °C
As of 4:35 AM on Thursday 18 Dec 2014 (Local Time) from KRNV Reporting Station
Drizzle Drizzle  
Wind Chill:   Ceiling: 5000
Heat Index:   Visibility: 7mi
Dew Point:   Wind: 8mph
Humidity: 98%   Direction: 80°E
Pressure: 30.19"   Gusts: NA
Location:  34.0951°N, 91.2386°W
Report Text: KRNV 181035Z AUTO 08007KT 7SM DZ BKN050 OVC065 05/04 A3019 RMK AO2 P0006 T00450042
Loading
Personal Weather Stations






























Interactive Weather Map New forecast layout! Learn more

10-Day Weather Forecast

Advertisements
Track Severe Weather on mobile